Time;durP1;ratioP1;P1;durP2;ratioP2;P2;SDS_P1;SDS_P2;PMS_P1;PMS_P2;Temp;Humidity;BMP_temperature;BMP_pressure;BME280_temperature;BME280_humidity;BME280_pressure;Samples;Min_cycle;Max_cycle;Signal;HPM_P1;HPM_P2
2023/08/11 00:00:27;;;;;;;2.40;1.10;;;;;;;18.65;100.00;101842.69;6250790;28;20045;-74
2023/08/11 00:03:28;;;;;;;1.15;0.80;;;;;;;18.69;100.00;101846.03;6250685;28;20053;-74
2023/08/11 00:06:30;;;;;;;1.02;0.90;;;;;;;18.63;100.00;101847.28;6250364;28;20065;-74
2023/08/11 00:09:31;;;;;;;2.30;1.33;;;;;;;18.58;100.00;101853.88;6250767;28;20053;-74
2023/08/11 00:12:35;;;;;;;1.95;1.00;;;;;;;18.59;100.00;101851.09;6250339;28;20053;-73
2023/08/11 00:15:39;;;;;;;1.50;0.90;;;;;;;18.55;100.00;101848.75;6249902;28;20377;-74
2023/08/11 00:18:41;;;;;;;1.45;1.00;;;;;;;18.54;100.00;101847.91;6250445;28;20049;-74
2023/08/11 00:21:42;;;;;;;1.83;1.40;;;;;;;18.54;100.00;101847.91;6250483;28;20053;-74
2023/08/11 00:24:43;;;;;;;1.55;1.00;;;;;;;18.55;100.00;101846.94;6249900;28;20061;-74
2023/08/11 00:27:47;;;;;;;2.50;1.30;;;;;;;18.47;100.00;101844.81;6250469;28;20050;-74
2023/08/11 00:30:50;;;;;;;1.15;1.05;;;;;;;18.48;100.00;101843.00;6250206;28;20126;-74
2023/08/11 00:33:52;;;;;;;4.20;0.98;;;;;;;18.47;100.00;101852.78;6250263;28;20132;-73
2023/08/11 00:36:55;;;;;;;4.40;1.60;;;;;;;18.49;100.00;101850.91;6250341;28;20060;-74
2023/08/11 00:39:56;;;;;;;3.80;1.75;;;;;;;18.48;100.00;101843.84;6250515;28;20045;-74
2023/08/11 00:42:59;;;;;;;2.58;1.20;;;;;;;18.46;100.00;101848.44;6250459;28;20049;-74
2023/08/11 00:46:07;;;;;;;3.10;1.65;;;;;;;18.42;100.00;101836.28;6232509;28;20057;-74
2023/08/11 00:49:09;;;;;;;3.25;1.60;;;;;;;18.41;100.00;101836.41;6225799;28;20060;-74
2023/08/11 00:52:11;;;;;;;3.22;1.23;;;;;;;18.34;100.00;101838.63;6225650;28;20077;-74
2023/08/11 00:55:13;;;;;;;2.42;1.30;;;;;;;18.37;100.00;101843.75;6226082;28;20053;-73
2023/08/11 00:58:17;;;;;;;4.50;1.67;;;;;;;18.40;100.00;101840.88;6245852;28;20421;-74
2023/08/11 01:01:18;;;;;;;3.70;1.40;;;;;;;18.39;100.00;101841.81;6244486;28;20470;-74
2023/08/11 01:04:21;;;;;;;3.65;1.40;;;;;;;18.27;100.00;101840.03;6249495;28;20167;-72
2023/08/11 01:07:27;;;;;;;3.75;1.67;;;;;;;18.25;100.00;101841.91;6248030;28;20052;-72
2023/08/11 01:10:35;;;;;;;2.42;1.30;;;;;;;18.27;100.00;101842.69;6247563;28;20045;-73
2023/08/11 01:13:46;;;;;;;2.03;1.20;;;;;;;18.22;100.00;101831.50;6250014;28;20076;-74
2023/08/11 01:16:48;;;;;;;3.45;1.38;;;;;;;18.23;100.00;101835.84;6270807;22;20053;-72
2023/08/11 01:19:50;;;;;;;10.05;1.83;;;;;;;18.23;100.00;101833.19;6240902;28;20164;-72
2023/08/11 01:22:57;;;;;;;3.20;1.60;;;;;;;18.22;100.00;101834.16;6225193;28;20060;-72
2023/08/11 01:26:00;;;;;;;10.05;1.48;;;;;;;18.21;100.00;101835.97;6249583;28;20050;-72
2023/08/11 01:29:02;;;;;;;9.18;1.23;;;;;;;18.19;100.00;101831.69;6253469;28;20053;-72
2023/08/11 01:32:03;;;;;;;1.35;0.90;;;;;;;18.19;100.00;101826.38;6254001;28;20058;-72
2023/08/11 01:35:06;;;;;;;0.98;0.90;;;;;;;18.16;100.00;101826.56;6253949;28;20049;-72
2023/08/11 01:38:08;;;;;;;2.30;1.20;;;;;;;18.17;100.00;101825.66;6254103;28;20076;-72
2023/08/11 01:41:11;;;;;;;5.25;1.50;;;;;;;18.15;100.00;101822.22;6254159;28;20056;-72
2023/08/11 01:44:14;;;;;;;3.28;1.25;;;;;;;18.12;100.00;101823.31;6253372;28;20354;-72
2023/08/11 01:47:18;;;;;;;1.77;1.02;;;;;;;18.11;100.00;101826.88;6253797;28;20049;-72
2023/08/11 01:50:20;;;;;;;1.98;1.23;;;;;;;18.13;100.00;101821.50;6253664;28;20053;-72
2023/08/11 01:53:21;;;;;;;6.72;1.70;;;;;;;18.11;100.00;101813.59;6253446;28;20083;-72
2023/08/11 01:56:25;;;;;;;4.47;1.20;;;;;;;18.12;100.00;101814.44;6253568;28;20444;-72
2023/08/11 01:59:26;;;;;;;2.60;1.38;;;;;;;18.15;100.00;101808.91;6253589;28;20057;-72
2023/08/11 02:02:28;;;;;;;1.40;1.30;;;;;;;18.18;100.00;101806.06;6253348;28;20056;-72
2023/08/11 02:05:29;;;;;;;2.50;1.30;;;;;;;18.15;100.00;101808.91;6253167;28;20050;-72
2023/08/11 02:08:31;;;;;;;6.00;1.50;;;;;;;18.14;100.00;101813.38;6253342;28;20060;-72
2023/08/11 02:11:34;;;;;;;2.53;1.27;;;;;;;18.14;100.00;101807.22;6253245;28;20608;-72
2023/08/11 02:14:36;;;;;;;5.43;1.30;;;;;;;18.12;100.00;101807.34;6252752;28;20053;-72
2023/08/11 02:17:37;;;;;;;1.65;1.20;;;;;;;18.08;100.00;101805.00;6252958;28;20431;-72
2023/08/11 02:20:39;;;;;;;1.42;1.33;;;;;;;18.04;100.00;101799.03;6253052;28;20471;-72
2023/08/11 02:23:40;;;;;;;2.80;1.40;;;;;;;18.07;100.00;101797.94;6252774;28;20052;-72
2023/08/11 02:26:43;;;;;;;2.88;1.30;;;;;;;18.10;100.00;101797.75;6252020;28;20042;-72
2023/08/11 02:29:44;;;;;;;5.13;1.70;;;;;;;18.10;100.00;101798.59;6253056;28;20072;-72
2023/08/11 02:32:46;;;;;;;3.83;1.35;;;;;;;18.11;100.00;101794.97;6221039;28;20375;-71
2023/08/11 02:35:47;;;;;;;2.72;1.42;;;;;;;18.11;100.00;101796.78;6203469;28;20473;-71
2023/08/11 02:38:49;;;;;;;5.45;1.58;;;;;;;18.11;100.00;101797.63;6207869;28;20360;-71
2023/08/11 02:41:51;;;;;;;5.75;1.02;;;;;;;18.08;100.00;101792.53;6206207;28;20056;-72
2023/08/11 02:44:53;;;;;;;3.88;1.17;;;;;;;18.08;100.00;101787.22;6211069;28;20057;-72
2023/08/11 02:47:55;;;;;;;2.65;1.10;;;;;;;18.08;100.00;101795.19;6203581;28;20105;-71
2023/08/11 02:50:56;;;;;;;1.40;1.10;;;;;;;18.06;100.00;101782.94;6203314;28;20438;-71
2023/08/11 02:53:57;;;;;;;2.72;1.35;;;;;;;18.05;100.00;101779.44;6204355;28;20053;-71
2023/08/11 02:57:01;;;;;;;1.95;1.40;;;;;;;18.01;100.00;101777.94;6238860;28;20042;-72
2023/08/11 03:00:08;;;;;;;1.35;0.95;;;;;;;17.98;100.00;101778.97;6252015;28;20053;-72
2023/08/11 03:03:09;;;;;;;1.70;1.55;;;;;;;17.96;100.00;101778.25;6248149;28;20382;-72
2023/08/11 03:06:11;;;;;;;1.85;1.50;;;;;;;17.96;100.00;101788.03;6251769;28;20067;-72
2023/08/11 03:09:13;;;;;;;2.85;1.38;;;;;;;17.98;100.00;101778.97;6250842;28;20042;-72
2023/08/11 03:12:16;;;;;;;4.18;1.58;;;;;;;17.96;100.00;101777.41;6251599;28;20073;-71
2023/08/11 03:15:17;;;;;;;7.43;1.67;;;;;;;18.00;100.00;101790.38;6251324;28;20050;-72
2023/08/11 03:18:19;;;;;;;4.45;2.10;;;;;;;17.99;100.00;101786.03;6251981;28;20053;-72
2023/08/11 03:21:21;;;;;;;5.97;1.80;;;;;;;17.99;100.00;101787.84;6251866;28;20099;-72
2023/08/11 03:24:23;;;;;;;3.85;1.90;;;;;;;18.00;100.00;101801.03;6251152;28;20053;-71
2023/08/11 03:27:25;;;;;;;1.30;0.90;;;;;;;18.02;100.00;101794.75;6251590;28;20049;-71
2023/08/11 03:30:27;;;;;;;2.58;1.73;;;;;;;17.99;100.00;101795.81;6251413;28;20465;-72
2023/08/11 03:33:28;;;;;;;2.83;1.52;;;;;;;17.96;100.00;101790.69;6251394;28;20060;-71
2023/08/11 03:36:29;;;;;;;4.70;2.78;;;;;;;17.97;100.00;101787.94;6251089;28;20042;-72
2023/08/11 03:39:31;;;;;;;2.15;1.45;;;;;;;17.97;100.00;101787.94;6251251;28;20353;-72
2023/08/11 03:42:34;;;;;;;2.88;1.38;;;;;;;18.00;100.00;101785.06;6251061;28;20058;-71
2023/08/11 03:45:36;;;;;;;2.60;1.40;;;;;;;17.99;100.00;101788.69;6251023;28;20053;-72
2023/08/11 03:48:37;;;;;;;1.70;1.30;;;;;;;17.99;100.00;101787.84;6251011;28;20046;-71
2023/08/11 03:51:39;;;;;;;4.63;1.65;;;;;;;17.98;100.00;101783.44;6250836;28;20053;-71
2023/08/11 03:54:40;;;;;;;3.00;1.70;;;;;;;17.95;100.00;101786.34;6250774;28;20056;-72
2023/08/11 03:57:45;;;;;;;3.35;1.60;;;;;;;17.94;100.00;101790.81;6250830;28;20147;-71
2023/08/11 04:00:46;;;;;;;6.40;1.60;;;;;;;17.92;100.00;101786.53;6250995;28;20049;-72
2023/08/11 04:03:48;;;;;;;5.40;2.10;;;;;;;17.89;100.00;101795.56;6250462;28;20061;-71
2023/08/11 04:06:51;;;;;;;3.63;1.77;;;;;;;17.85;100.00;101795.88;6250826;28;20050;-71
2023/08/11 04:09:54;;;;;;;2.20;1.27;;;;;;;17.86;100.00;101793.13;6250799;28;20052;-72
2023/08/11 04:12:56;;;;;;;3.17;1.30;;;;;;;17.82;100.00;101798.75;6250646;28;20064;-71
2023/08/11 04:15:59;;;;;;;2.35;1.30;;;;;;;17.84;100.00;101791.50;6250344;28;20053;-71
2023/08/11 04:19:00;;;;;;;1.90;1.48;;;;;;;17.84;100.00;101795.03;6250779;28;20052;-71
2023/08/11 04:22:01;;;;;;;2.97;1.58;;;;;;;17.85;100.00;101783.47;6250577;28;20049;-72
2023/08/11 04:25:09;;;;;;;1.90;1.10;;;;;;;17.88;100.00;101790.34;6250256;28;20072;-72
2023/08/11 04:28:12;;;;;;;4.28;1.58;;;;;;;17.82;100.00;101791.63;6250505;28;20053;-71
2023/08/11 04:31:14;;;;;;;3.53;1.50;;;;;;;17.83;100.00;101779.19;6250674;28;20064;-71
2023/08/11 04:34:16;;;;;;;4.82;1.50;;;;;;;17.82;100.00;101786.31;6250441;28;20053;-71
2023/08/11 04:37:18;;;;;;;1.23;1.13;;;;;;;17.84;100.00;101784.38;6250252;28;20046;-71
2023/08/11 04:40:20;;;;;;;4.47;1.48;;;;;;;17.83;100.00;101793.31;6250395;28;20050;-72
2023/08/11 04:43:23;;;;;;;3.80;2.00;;;;;;;17.82;100.00;101782.81;6250218;28;20061;-71
2023/08/11 04:46:24;;;;;;;4.30;1.90;;;;;;;17.83;100.00;101787.16;6249916;28;20323;-72
2023/08/11 04:49:26;;;;;;;2.45;1.17;;;;;;;17.83;100.00;101795.13;6250198;28;20045;-71
2023/08/11 04:52:27;;;;;;;3.97;1.50;;;;;;;17.86;100.00;101790.47;6250278;28;20045;-72
2023/08/11 04:55:30;;;;;;;3.58;1.73;;;;;;;17.81;100.00;101791.75;6242787;28;20041;-71
2023/08/11 04:58:33;;;;;;;2.80;1.70;;;;;;;17.83;100.00;101797.78;6250150;28;20056;-71
2023/08/11 05:01:35;;;;;;;3.22;1.48;;;;;;;17.82;100.00;101799.59;6235198;28;20078;-72
2023/08/11 05:04:36;;;;;;;2.35;1.23;;;;;;;17.82;100.00;101804.06;6224600;28;20053;-71
2023/08/11 05:07:39;;;;;;;1.40;1.20;;;;;;;17.84;100.00;101802.16;6227987;28;20053;-71
2023/08/11 05:10:41;;;;;;;1.92;0.98;;;;;;;17.81;100.00;101805.88;6253161;28;20124;-72
2023/08/11 05:13:44;;;;;;;4.45;1.40;;;;;;;17.85;100.00;101796.75;6254245;28;20072;-71
2023/08/11 05:16:45;;;;;;;4.95;1.40;;;;;;;17.82;100.00;101801.41;6254229;28;20111;-71
2023/08/11 05:19:46;;;;;;;1.95;1.20;;;;;;;17.83;100.00;101801.31;6254586;28;20050;-71
2023/08/11 05:22:48;;;;;;;2.00;1.10;;;;;;;17.86;100.00;101792.28;6254199;28;20057;-71
2023/08/11 05:25:49;;;;;;;7.55;1.23;;;;;;;17.87;100.00;101800.16;6254054;28;20085;-71
2023/08/11 05:28:52;;;;;;;3.33;1.40;;;;;;;17.87;100.00;101793.97;6254162;28;20050;-71
2023/08/11 05:31:54;;;;;;;3.55;1.50;;;;;;;17.90;100.00;101805.28;6254312;28;20057;-71
2023/08/11 05:34:55;;;;;;;1.55;1.20;;;;;;;17.93;100.00;101797.06;6253860;28;20354;-71
2023/08/11 05:37:57;;;;;;;1.60;1.20;;;;;;;17.98;100.00;101804.72;6254168;28;20053;-72
2023/08/11 05:40:58;;;;;;;2.30;1.38;;;;;;;17.93;100.00;101821.00;6253917;28;20049;-72
2023/08/11 05:44:01;;;;;;;9.35;1.55;;;;;;;17.90;100.00;101813.25;6253515;28;20053;-71
2023/08/11 05:47:04;;;;;;;3.33;1.40;;;;;;;17.94;100.00;101816.53;6253786;28;20049;-72
2023/08/11 05:50:06;;;;;;;1.85;1.40;;;;;;;18.03;100.00;101817.72;6253649;28;20151;-71
2023/08/11 05:53:08;;;;;;;2.90;1.50;;;;;;;17.93;100.00;101817.50;6253610;28;20049;-72
2023/08/11 05:56:09;;;;;;;2.28;1.50;;;;;;;18.01;100.00;101812.50;6253271;28;20048;-71
2023/08/11 05:59:12;;;;;;;2.65;1.40;;;;;;;17.92;100.00;101802.50;6253950;28;20136;-72
2023/08/11 06:02:13;;;;;;;1.70;1.13;;;;;;;17.92;100.00;101802.50;6253409;28;20041;-72
2023/08/11 06:05:15;;;;;;;3.67;1.92;;;;;;;17.95;100.00;101815.59;6253168;28;20053;-72
2023/08/11 06:08:17;;;;;;;1.75;1.27;;;;;;;17.94;100.00;101817.41;6253477;28;20156;-72
2023/08/11 06:11:18;;;;;;;5.60;1.92;;;;;;;17.95;100.00;101800.50;6253437;28;20456;-72
2023/08/11 06:14:21;;;;;;;1.48;1.10;;;;;;;17.96;100.00;101804.84;6252621;28;20049;-72
2023/08/11 06:17:23;;;;;;;3.35;1.50;;;;;;;17.95;100.00;101799.66;6253358;28;20045;-72
2023/08/11 06:20:24;;;;;;;2.28;1.08;;;;;;;17.97;100.00;101809.19;6252958;28;20442;-72
2023/08/11 06:23:25;;;;;;;1.50;1.30;;;;;;;17.91;100.00;101808.78;6252919;28;20056;-72
2023/08/11 06:26:27;;;;;;;2.13;1.27;;;;;;;17.91;100.00;101801.66;6252626;28;20060;-72
2023/08/11 06:29:30;;;;;;;4.25;1.27;;;;;;;17.94;100.00;101803.22;6252765;28;20054;-72
2023/08/11 06:32:31;;;;;;;1.95;1.38;;;;;;;18.09;100.00;101806.69;6252852;28;20060;-72
2023/08/11 06:35:32;;;;;;;1.58;1.20;;;;;;;18.12;100.00;101791.38;6252472;28;20063;-72
2023/08/11 06:38:35;;;;;;;3.58;1.75;;;;;;;18.16;100.00;101794.66;6252755;28;20056;-72
2023/08/11 06:41:36;;;;;;;4.50;1.58;;;;;;;18.21;100.00;101801.38;6252409;28;20227;-72
2023/08/11 06:44:39;;;;;;;2.00;1.50;;;;;;;18.19;100.00;101797.97;6252300;28;20049;-72
2023/08/11 06:47:40;;;;;;;1.92;1.40;;;;;;;18.25;100.00;101796.69;6252176;28;20052;-72
2023/08/11 06:50:42;;;;;;;1.67;1.42;;;;;;;18.35;100.00;101808.41;6252239;28;20346;-72
2023/08/11 06:53:43;;;;;;;2.20;1.38;;;;;;;18.44;100.00;101809.56;6252073;28;20053;-72
2023/08/11 06:56:44;;;;;;;2.15;1.33;;;;;;;18.47;100.00;101807.53;6244722;28;20045;-72
2023/08/11 06:59:47;;;;;;;3.45;1.30;;;;;;;18.49;100.00;101804.78;6251331;28;20430;-72
2023/08/11 07:02:49;;;;;;;2.60;1.35;;;;;;;18.47;100.00;101810.19;6244862;28;20050;-73
2023/08/11 07:05:51;;;;;;;2.08;1.40;;;;;;;18.50;100.00;101812.66;6251816;28;20128;-72
2023/08/11 07:08:52;;;;;;;1.85;1.10;;;;;;;18.56;100.00;101811.38;6244524;28;20056;-72
2023/08/11 07:11:54;;;;;;;2.30;1.25;;;;;;;18.68;100.00;101807.00;6242526;28;20069;-72
2023/08/11 07:14:56;;;;;;;2.00;1.27;;;;;;;18.65;100.00;101812.53;6272475;22;20091;-73
2023/08/11 07:17:58;;;;;;;4.80;1.60;;;;;;;18.66;100.00;101804.44;6267928;28;20051;-73
2023/08/11 07:20:59;;;;;;;1.55;1.08;;;;;;;18.79;100.00;101811.59;6267822;28;20054;-73
2023/08/11 07:24:01;;;;;;;2.17;0.95;;;;;;;18.94;100.00;101807.84;6260740;28;20046;-73
2023/08/11 07:27:02;;;;;;;2.65;1.23;;;;;;;18.92;100.00;101813.28;6256284;28;20048;-74
2023/08/11 07:30:07;;;;;;;2.35;0.90;;;;;;;18.96;100.00;101819.25;6269126;28;20124;-73
2023/08/11 07:33:08;;;;;;;1.23;1.13;;;;;;;18.91;100.00;101816.91;6254195;28;20076;-73
2023/08/11 07:36:10;;;;;;;1.83;1.05;;;;;;;18.95;100.00;101807.75;6267000;28;20068;-72
2023/08/11 07:39:12;;;;;;;1.67;1.00;;;;;;;18.97;100.00;101816.47;6257779;28;20048;-72
2023/08/11 07:42:13;;;;;;;2.95;1.00;;;;;;;19.00;100.00;101818.91;6263297;28;20053;-73
2023/08/11 07:45:16;;;;;;;2.00;1.10;;;;;;;19.04;100.00;101818.72;6259113;28;20050;-73
2023/08/11 07:48:18;;;;;;;2.00;1.10;;;;;;;19.04;100.00;101810.72;6262519;28;20437;-73
2023/08/11 07:51:19;;;;;;;1.23;1.13;;;;;;;19.12;100.00;101814.53;6267867;28;20191;-74
2023/08/11 07:54:21;;;;;;;2.60;0.90;;;;;;;19.17;100.00;101804.38;6270993;28;20357;-73
2023/08/11 07:57:22;;;;;;;2.10;1.00;;;;;;;19.23;100.00;101806.59;6275659;28;20045;-73
2023/08/11 08:00:25;;;;;;;1.27;0.88;;;;;;;19.24;100.00;101805.63;6260105;28;20049;-73
2023/08/11 08:03:27;;;;;;;1.70;1.08;;;;;;;19.21;100.00;101807.66;6255872;28;20124;-73
2023/08/11 08:06:28;;;;;;;1.63;1.02;;;;;;;19.22;100.00;101804.91;6263647;28;20049;-74
2023/08/11 08:09:33;;;;;;;3.17;1.30;;;;;;;19.30;100.00;101809.66;6275668;28;20052;-72
2023/08/11 08:12:36;;;;;;;1.63;1.40;;;;;;;19.38;100.00;101815.28;6266595;28;20132;-75
2023/08/11 08:15:39;;;;;;;0.93;0.88;;;;;;;19.44;98.11;101814.84;6272928;28;20053;-72
2023/08/11 08:18:40;;;;;;;0.75;0.75;;;;;;;19.51;98.06;101808.06;6275591;28;20049;-74
2023/08/11 08:21:42;;;;;;;1.77;1.08;;;;;;;19.52;97.64;101807.09;6275257;28;20464;-74
2023/08/11 08:24:43;;;;;;;1.85;1.38;;;;;;;19.59;96.50;101807.50;6266664;28;20391;-74
2023/08/11 08:27:45;;;;;;;1.42;0.95;;;;;;;19.67;97.69;101799.00;6267119;28;20056;-73
2023/08/11 08:30:48;;;;;;;1.48;1.27;;;;;;;19.70;99.99;101807.59;6275192;28;20350;-74
2023/08/11 08:33:49;;;;;;;2.55;1.10;;;;;;;19.76;100.00;101800.97;6256389;28;20056;-74
2023/08/11 08:36:50;;;;;;;1.35;1.10;;;;;;;19.74;97.17;101798.38;6252493;28;20052;-73
2023/08/11 08:39:52;;;;;;;1.10;1.00;;;;;;;19.82;95.46;101795.16;6255528;28;20468;-73
2023/08/11 08:42:54;;;;;;;1.20;0.90;;;;;;;19.88;96.96;101793.84;6252050;28;20061;-73
2023/08/11 08:46:00;;;;;;;1.23;1.00;;;;;;;19.83;98.36;101801.34;6264986;28;20059;-73
2023/08/11 08:49:10;;;;;;;1.70;1.10;;;;;;;19.99;97.76;101794.72;6255054;28;20045;-73
2023/08/11 08:52:11;;;;;;;1.85;1.00;;;;;;;20.04;98.07;101790.84;6255220;28;20049;-73
2023/08/11 08:55:14;;;;;;;1.48;0.95;;;;;;;20.10;95.38;101796.56;6254479;28;20053;-75
2023/08/11 08:58:16;;;;;;;1.38;0.88;;;;;;;20.19;93.76;101797.66;6263892;28;20060;-74
2023/08/11 09:01:19;;;;;;;1.10;0.90;;;;;;;20.27;89.96;101793.44;6261057;28;20053;-74
2023/08/11 09:04:21;;;;;;;1.27;0.88;;;;;;;20.19;91.63;101792.34;6274782;28;20056;-74
2023/08/11 09:07:22;;;;;;;1.30;0.85;;;;;;;20.18;95.16;101782.63;6274746;28;20095;-74
2023/08/11 09:10:26;;;;;;;2.30;0.90;;;;;;;20.26;95.29;101783.75;6266386;28;20377;-74
2023/08/11 09:13:27;;;;;;;1.23;0.90;;;;;;;20.35;96.48;101794.66;6254171;28;20638;-75
2023/08/11 09:16:32;;;;;;;0.77;0.70;;;;;;;20.35;97.03;101797.31;6262118;28;20045;-74
2023/08/11 09:19:33;;;;;;;1.00;0.85;;;;;;;20.34;98.47;101788.47;6276301;28;20045;-74
2023/08/11 09:22:38;;;;;;;2.42;1.17;;;;;;;20.46;95.92;101784.00;6278933;28;20356;-74
2023/08/11 09:25:39;;;;;;;1.77;0.95;;;;;;;20.46;93.41;101790.19;6278759;28;20049;-74
2023/08/11 09:28:40;;;;;;;1.77;1.00;;;;;;;20.52;95.77;101787.06;6278869;28;20041;-75
2023/08/11 09:31:47;;;;;;;1.33;0.88;;;;;;;20.57;95.74;101785.84;6277894;28;20359;-75
2023/08/11 09:34:48;;;;;;;2.33;0.60;;;;;;;20.56;96.08;101789.50;6253748;28;20049;-74
2023/08/11 09:37:52;;;;;;;0.68;0.68;;;;;;;20.57;97.31;101786.69;6254195;28;20050;-74
2023/08/11 09:40:54;;;;;;;1.40;0.75;;;;;;;20.63;97.19;101778.22;6253763;28;20072;-73
2023/08/11 09:43:55;;;;;;;1.15;0.80;;;;;;;20.78;94.73;101781.47;6253643;28;20050;-73
2023/08/11 09:46:58;;;;;;;1.67;0.70;;;;;;;20.76;91.39;101778.94;6253935;28;20045;-73
2023/08/11 09:49:59;;;;;;;0.63;0.60;;;;;;;20.77;90.05;101787.81;6253240;28;20053;-73
2023/08/11 09:53:05;;;;;;;2.85;0.90;;;;;;;20.83;89.84;101789.97;6253240;28;20334;-74
2023/08/11 09:56:06;;;;;;;1.67;0.95;;;;;;;20.93;89.04;101785.56;6256378;28;20112;-74
2023/08/11 09:59:12;;;;;;;1.85;0.60;;;;;;;20.94;88.41;101792.66;6278441;28;20060;-73
2023/08/11 10:02:20;;;;;;;0.70;0.50;;;;;;;20.95;86.75;101789.00;6277916;28;20042;-74
2023/08/11 10:05:25;;;;;;;0.80;0.53;;;;;;;20.99;88.12;101787.78;6277984;28;20052;-74
2023/08/11 10:08:29;;;;;;;1.58;1.05;;;;;;;21.08;91.08;101791.53;6258738;28;20471;-74
2023/08/11 10:11:34;;;;;;;2.72;0.95;;;;;;;21.24;89.36;101786.59;6253313;28;20083;-74
2023/08/11 10:14:37;;;;;;;4.63;2.30;;;;;;;21.31;90.88;101778.97;6252975;28;20056;-73
2023/08/11 10:17:40;;;;;;;2.55;0.60;;;;;;;21.56;85.54;101772.44;6253175;28;20072;-72
2023/08/11 10:20:42;;;;;;;0.55;0.52;;;;;;;21.61;84.54;101775.56;6253110;28;20061;-72
2023/08/11 10:23:44;;;;;;;0.90;0.80;;;;;;;21.59;90.66;101774.88;6252891;28;20046;-72
2023/08/11 10:26:45;;;;;;;1.95;0.70;;;;;;;21.57;87.96;101775.94;6252949;28;20049;-72
2023/08/11 10:29:50;;;;;;;3.58;1.10;;;;;;;21.57;86.69;101773.28;6253151;28;20057;-73
2023/08/11 10:32:57;;;;;;;0.82;0.57;;;;;;;21.66;83.23;101775.19;6263319;28;20367;-72
2023/08/11 10:36:01;;;;;;;0.60;0.52;;;;;;;21.70;83.08;101776.63;6277531;28;20083;-72
2023/08/11 10:39:04;;;;;;;0.60;0.60;;;;;;;21.73;84.89;101765.69;6260336;28;20049;-72
2023/08/11 10:42:11;;;;;;;0.73;0.73;;;;;;;21.95;88.79;101762.03;6227985;28;20067;-72
2023/08/11 10:45:14;;;;;;;2.85;0.88;;;;;;;21.99;86.97;101760.78;6227731;28;20049;-73
2023/08/11 10:48:22;;;;;;;0.82;0.50;;;;;;;22.07;88.78;101765.47;6228190;28;20042;-73
2023/08/11 10:51:29;;;;;;;0.60;0.60;;;;;;;22.09;85.53;101756.34;6226943;28;20050;-72
2023/08/11 10:54:31;;;;;;;4.45;0.70;;;;;;;22.15;87.08;101755.00;6227287;28;20050;-72
2023/08/11 10:57:34;;;;;;;1.23;0.73;;;;;;;22.24;87.35;101754.19;6227695;28;20046;-72
2023/08/11 11:00:36;;;;;;;0.70;0.68;;;;;;;22.33;83.60;101750.72;6226539;28;20081;-72
2023/08/11 11:03:42;;;;;;;1.55;0.57;;;;;;;22.52;82.98;101755.31;6229920;28;20046;-73
2023/08/11 11:06:45;;;;;;;0.60;0.60;;;;;;;22.45;84.38;101748.81;6227228;28;20446;-72
2023/08/11 11:09:46;;;;;;;0.63;0.60;;;;;;;22.46;86.46;101748.66;6237409;28;20052;-72
2023/08/11 11:12:47;;;;;;;0.63;0.60;;;;;;;22.73;83.35;101750.75;6251569;28;20049;-71
2023/08/11 11:15:49;;;;;;;0.80;0.80;;;;;;;22.73;80.06;101742.69;6251536;28;20049;-72
2023/08/11 11:18:52;;;;;;;1.08;0.70;;;;;;;22.82;79.32;101730.31;6251548;28;20330;-72
2023/08/11 11:22:01;;;;;;;1.10;0.43;;;;;;;23.08;80.47;101741.41;6322013;28;20390;-71
2023/08/11 11:25:03;;;;;;;0.55;0.50;;;;;;;23.17;77.66;101734.38;6321473;28;20063;-70
2023/08/11 11:28:05;;;;;;;0.55;0.50;;;;;;;23.41;79.40;101739.31;6322049;28;20051;-71
2023/08/11 11:31:06;;;;;;;0.90;0.73;;;;;;;23.51;77.62;101735.63;6321746;28;20445;-71
2023/08/11 11:34:08;;;;;;;1.38;0.82;;;;;;;23.51;78.48;101734.78;6321761;28;20063;-72
2023/08/11 11:37:11;;;;;;;1.10;0.70;;;;;;;23.73;78.55;101733.66;6321756;28;20052;-73
2023/08/11 11:40:13;;;;;;;2.08;0.75;;;;;;;23.95;72.22;101729.81;6321400;28;20048;-71
2023/08/11 11:43:14;;;;;;;1.20;0.95;;;;;;;23.87;75.00;101721.63;6321180;28;20205;-71
2023/08/11 11:46:18;;;;;;;2.35;0.75;;;;;;;24.05;80.28;101725.25;6321115;28;20071;-69
2023/08/11 11:49:19;;;;;;;0.63;0.57;;;;;;;24.29;72.28;101717.53;6301012;28;20433;-69
2023/08/11 11:52:22;;;;;;;2.08;1.02;;;;;;;24.49;71.35;101718.34;6295928;28;20095;-69
2023/08/11 11:55:23;;;;;;;0.63;0.63;;;;;;;24.73;76.38;101717.78;6295846;28;20049;-69
2023/08/11 11:58:25;;;;;;;1.30;0.75;;;;;;;24.89;72.34;101711.75;6295971;28;20437;-70
2023/08/11 12:01:29;;;;;;;1.50;0.90;;;;;;;25.00;72.99;101722.28;6296003;28;20392;-71
2023/08/11 12:04:30;;;;;;;2.35;0.93;;;;;;;25.16;71.52;101716.22;6295670;28;20459;-71
2023/08/11 12:07:35;;;;;;;0.93;0.80;;;;;;;25.32;69.72;101707.47;6295830;28;20059;-70
2023/08/11 12:10:36;;;;;;;2.08;1.00;;;;;;;25.44;71.94;101697.34;6295646;28;20052;-69
2023/08/11 12:13:39;;;;;;;1.73;0.90;;;;;;;25.60;70.85;101699.28;6295226;28;20059;-70
2023/08/11 12:16:40;;;;;;;1.25;0.90;;;;;;;25.86;67.61;101704.75;6295639;28;20063;-73
2023/08/11 12:19:41;;;;;;;1.65;0.80;;;;;;;25.93;70.99;101695.84;6295253;28;20044;-70
2023/08/11 12:22:44;;;;;;;4.88;0.93;;;;;;;26.06;74.25;101698.94;6295439;28;20063;-72
2023/08/11 12:25:46;;;;;;;1.13;0.90;;;;;;;26.27;69.00;101695.88;6294934;28;20055;-72
2023/08/11 12:28:48;;;;;;;1.67;0.95;;;;;;;26.37;68.92;101703.81;6295246;28;20360;-72
2023/08/11 12:31:50;;;;;;;2.38;0.95;;;;;;;26.48;66.08;101703.59;6289084;28;20044;-72
2023/08/11 12:34:51;;;;;;;1.10;0.90;;;;;;;26.47;65.21;101709.13;6303234;28;20440;-71
2023/08/11 12:37:54;;;;;;;3.45;1.20;;;;;;;26.52;66.33;101699.53;6303549;28;20049;-71
2023/08/11 12:40:57;;;;;;;1.27;0.90;;;;;;;26.60;69.04;101693.31;6303500;28;20048;-72
2023/08/11 12:43:58;;;;;;;1.13;0.65;;;;;;;26.66;69.13;101689.13;6303141;28;20519;-72
2023/08/11 12:47:00;;;;;;;3.53;0.90;;;;;;;26.80;64.93;101683.13;6302172;28;20368;-72
2023/08/11 12:50:01;;;;;;;1.15;1.05;;;;;;;26.94;64.08;101687.03;6278384;28;20098;-72
2023/08/11 12:53:05;;;;;;;1.33;1.23;;;;;;;27.03;63.17;101680.63;6295738;28;20357;-72
2023/08/11 12:56:06;;;;;;;0.82;0.75;;;;;;;27.01;64.62;101678.06;6296214;28;20117;-72
2023/08/11 12:59:08;;;;;;;1.40;0.90;;;;;;;27.18;61.39;101665.47;6302780;28;20539;-71
2023/08/11 13:02:09;;;;;;;4.20;1.08;;;;;;;27.36;64.45;101665.31;6303132;28;20049;-71
2023/08/11 13:05:10;;;;;;;1.40;1.00;;;;;;;27.42;65.23;101656.53;6302589;28;20059;-72
2023/08/11 13:08:14;;;;;;;1.00;0.90;;;;;;;27.53;60.95;101668.84;6303154;28;20048;-72
2023/08/11 13:11:15;;;;;;;1.85;1.10;;;;;;;27.45;61.19;101661.59;6298344;28;20045;-72
2023/08/11 13:14:16;;;;;;;1.42;0.90;;;;;;;27.53;60.99;101667.00;6286706;28;20068;-72
2023/08/11 13:17:18;;;;;;;1.33;1.05;;;;;;;27.75;58.03;101665.47;6300056;28;20068;-70
2023/08/11 13:20:19;;;;;;;1.23;1.00;;;;;;;27.78;60.24;101664.28;6302288;28;20052;-70
2023/08/11 13:23:23;;;;;;;1.50;0.95;;;;;;;27.91;62.28;101661.88;6302227;28;20052;-70
2023/08/11 13:26:24;;;;;;;3.03;0.85;;;;;;;28.11;60.47;101656.06;6302084;28;20063;-70
2023/08/11 13:29:26;;;;;;;2.60;1.25;;;;;;;27.97;57.14;101649.53;6302562;28;20127;-70
2023/08/11 13:32:28;;;;;;;2.22;1.13;;;;;;;28.11;55.99;101653.34;6297780;28;20388;-71
2023/08/11 13:35:29;;;;;;;1.05;0.93;;;;;;;28.19;57.68;101656.88;6302095;28;20052;-70
2023/08/11 13:38:32;;;;;;;1.45;1.00;;;;;;;28.22;57.46;101661.09;6302074;28;20361;-70
2023/08/11 13:41:34;;;;;;;3.35;0.80;;;;;;;28.41;59.11;101660.69;6302162;28;20048;-70
2023/08/11 13:44:35;;;;;;;2.65;1.08;;;;;;;28.43;55.35;101655.94;6300728;28;20058;-70
2023/08/11 13:47:37;;;;;;;1.10;0.85;;;;;;;28.61;54.55;101652.97;6298541;28;20048;-71
2023/08/11 13:50:38;;;;;;;1.00;0.90;;;;;;;28.46;55.24;101657.47;6299001;28;20051;-71
2023/08/11 13:53:42;;;;;;;1.90;0.77;;;;;;;28.20;56.42;101639.63;6296581;28;20048;-70
2023/08/11 13:56:44;;;;;;;2.55;1.17;;;;;;;28.12;60.49;101639.69;6299278;28;20048;-70
2023/08/11 13:59:45;;;;;;;1.00;0.70;;;;;;;28.57;59.29;101638.16;6294294;28;20045;-70